createdAt,value
2023-03-06T00:04:24.685Z,15.63
2023-03-06T00:06:52.339Z,15.64
2023-03-06T00:09:21.531Z,15.64
2023-03-06T00:11:51.166Z,15.59
2023-03-06T00:14:18.766Z,15.59
2023-03-06T00:16:48.828Z,15.59
2023-03-06T00:19:18.669Z,15.59
2023-03-06T00:21:52.151Z,15.57
2023-03-06T00:24:19.600Z,15.53
2023-03-06T00:26:47.245Z,15.53
2023-03-06T00:29:18.686Z,15.55
2023-03-06T00:31:56.878Z,15.57
2023-03-06T00:34:24.309Z,15.55
2023-03-06T00:36:54.965Z,15.54
2023-03-06T00:39:22.741Z,15.54
2023-03-06T00:41:50.592Z,15.52
2023-03-06T00:44:18.062Z,15.52
2023-03-06T00:46:48.192Z,15.48
2023-03-06T00:49:17.858Z,15.50
2023-03-06T00:51:45.487Z,15.51
2023-03-06T00:54:14.270Z,15.48
2023-03-06T00:56:41.739Z,15.46
2023-03-06T00:59:10.404Z,15.46
2023-03-06T01:01:40.739Z,15.47
2023-03-06T01:04:08.299Z,15.45
2023-03-06T01:06:38.032Z,15.44
2023-03-06T01:09:05.688Z,15.44
2023-03-06T01:11:37.627Z,15.45
2023-03-06T01:14:05.213Z,15.43
2023-03-06T01:16:32.841Z,15.42
2023-03-06T01:19:03.334Z,15.42
2023-03-06T01:21:30.807Z,15.41
2023-03-06T01:24:00.360Z,15.40
2023-03-06T01:26:28.007Z,15.40
2023-03-06T01:29:00.416Z,15.39
2023-03-06T01:31:27.988Z,15.39
2023-03-06T01:33:56.806Z,15.37
2023-03-06T01:36:26.102Z,15.37
2023-03-06T01:38:56.292Z,15.36
2023-03-06T01:41:24.985Z,15.36
2023-03-06T01:43:55.319Z,15.39
2023-03-06T01:46:25.741Z,15.36
2023-03-06T01:48:56.048Z,15.36
2023-03-06T01:51:23.546Z,15.33
2023-03-06T01:53:51.354Z,15.32
2023-03-06T01:56:24.973Z,15.34
2023-03-06T01:58:52.454Z,15.34
2023-03-06T02:01:20.171Z,15.32
2023-03-06T02:03:51.184Z,15.30
2023-03-06T02:06:21.905Z,15.29
2023-03-06T02:08:54.874Z,15.31
2023-03-06T02:11:25.534Z,15.29
2023-03-06T02:13:55.423Z,15.29
2023-03-06T02:16:25.861Z,15.28
2023-03-06T02:18:53.265Z,15.25
2023-03-06T02:21:23.709Z,15.25
2023-03-06T02:23:51.333Z,15.28
2023-03-06T02:26:18.722Z,15.26
2023-03-06T02:28:46.124Z,15.25
2023-03-06T02:31:13.749Z,15.24
2023-03-06T02:33:41.109Z,15.22
2023-03-06T02:36:14.228Z,15.22
2023-03-06T02:38:41.696Z,15.22
2023-03-06T02:41:12.172Z,15.22
2023-03-06T02:43:42.293Z,15.23
2023-03-06T02:46:09.627Z,15.21
2023-03-06T02:48:38.299Z,15.20
2023-03-06T02:51:05.783Z,15.19
2023-03-06T02:53:33.095Z,15.19
2023-03-06T02:56:00.663Z,15.19
2023-03-06T02:58:28.058Z,15.20
2023-03-06T03:00:55.569Z,15.19
2023-03-06T03:03:23.020Z,15.15
2023-03-06T03:05:51.634Z,15.16
2023-03-06T03:08:21.665Z,15.18
2023-03-06T03:10:50.405Z,15.17
2023-03-06T03:13:18.102Z,15.16
2023-03-06T03:15:45.582Z,15.15
2023-03-06T03:18:13.064Z,15.17
2023-03-06T03:20:43.114Z,15.16
2023-03-06T03:23:15.582Z,15.15
2023-03-06T03:25:43.192Z,15.14
2023-03-06T03:28:10.670Z,15.14
2023-03-06T03:30:40.919Z,15.13
2023-03-06T03:33:08.325Z,15.12
2023-03-06T03:35:35.924Z,15.13
2023-03-06T03:38:04.714Z,15.12
2023-03-06T03:40:32.088Z,15.11
2023-03-06T03:43:04.849Z,15.09
2023-03-06T03:45:32.518Z,15.09
2023-03-06T03:48:02.978Z,15.09
2023-03-06T03:50:30.474Z,15.09
2023-03-06T03:52:57.907Z,15.08
2023-03-06T03:55:25.345Z,15.07
2023-03-06T03:57:52.926Z,15.06
2023-03-06T04:00:20.375Z,15.04
2023-03-06T04:02:47.919Z,15.04
2023-03-06T04:05:15.391Z,15.04
2023-03-06T04:07:42.884Z,15.04
2023-03-06T04:10:10.532Z,15.01
2023-03-06T04:12:40.109Z,15.02
2023-03-06T04:15:07.648Z,15.02
2023-03-06T04:17:35.276Z,15.00
2023-03-06T04:20:04.989Z,15.02
2023-03-06T04:22:32.518Z,15.02
2023-03-06T04:25:05.076Z,14.99
2023-03-06T04:27:32.557Z,14.97
2023-03-06T04:30:00.286Z,14.99
2023-03-06T04:32:27.805Z,15.00
2023-03-06T04:34:55.311Z,14.99
2023-03-06T04:37:23.924Z,14.99
2023-03-06T04:39:56.071Z,14.98
2023-03-06T04:42:23.502Z,14.98
2023-03-06T04:44:51.053Z,14.98
2023-03-06T04:47:20.691Z,14.96
2023-03-06T04:49:50.623Z,14.97
2023-03-06T04:52:21.284Z,14.96
2023-03-06T04:54:48.787Z,14.95
2023-03-06T04:57:16.401Z,14.93
2023-03-06T04:59:46.282Z,14.92
2023-03-06T05:02:14.947Z,14.93
2023-03-06T05:04:44.835Z,14.92
2023-03-06T05:07:20.432Z,14.90
2023-03-06T05:09:52.977Z,14.92
2023-03-06T05:12:23.597Z,14.90
2023-03-06T05:14:51.149Z,14.93
2023-03-06T05:17:19.725Z,14.91
2023-03-06T05:19:47.274Z,14.90
2023-03-06T05:22:14.750Z,14.87
2023-03-06T05:24:42.210Z,14.88
2023-03-06T05:27:12.907Z,14.90
2023-03-06T05:29:41.317Z,14.90
2023-03-06T05:32:11.366Z,14.88
2023-03-06T05:34:38.919Z,14.85
2023-03-06T05:37:06.451Z,14.86
2023-03-06T05:39:35.001Z,14.85
2023-03-06T05:42:02.530Z,14.86
2023-03-06T05:44:32.847Z,14.84
2023-03-06T05:47:00.380Z,14.83
2023-03-06T05:49:27.918Z,14.85
2023-03-06T05:51:55.500Z,14.81
2023-03-06T05:54:28.968Z,14.82
2023-03-06T05:57:00.397Z,14.79
2023-03-06T05:59:39.005Z,14.82
2023-03-06T06:02:09.273Z,14.82
2023-03-06T06:04:36.347Z,14.82
2023-03-06T06:07:03.483Z,14.81
2023-03-06T06:09:30.634Z,14.82
2023-03-06T06:11:57.700Z,14.80
2023-03-06T06:14:24.824Z,14.80
2023-03-06T06:16:51.883Z,14.81
2023-03-06T06:19:20.170Z,14.81
2023-03-06T06:21:47.802Z,14.84
2023-03-06T06:24:14.916Z,14.85
2023-03-06T06:26:42.312Z,14.85
2023-03-06T06:31:56.649Z,14.84
2023-03-06T06:34:24.133Z,14.87
2023-03-06T06:36:53.355Z,14.85
2023-03-06T06:39:20.869Z,14.84
2023-03-06T06:42:02.336Z,14.88
2023-03-06T06:44:36.939Z,14.89
2023-03-06T06:49:51.259Z,14.89
2023-03-06T06:52:18.778Z,14.91
2023-03-06T06:54:46.019Z,14.89
2023-03-06T06:57:13.296Z,14.90
2023-03-06T06:59:40.370Z,14.91
2023-03-06T07:02:07.488Z,14.90
2023-03-06T07:04:34.680Z,14.92
2023-03-06T07:07:01.741Z,14.91
2023-03-06T07:09:30.875Z,14.94
2023-03-06T07:11:57.988Z,14.95
2023-03-06T07:14:25.057Z,14.96
2023-03-06T07:16:52.136Z,14.96
2023-03-06T07:19:19.357Z,14.97
2023-03-06T07:21:46.481Z,14.94
2023-03-06T07:24:13.561Z,14.98
2023-03-06T07:26:40.710Z,15.04
2023-03-06T07:29:08.075Z,15.02
2023-03-06T07:31:35.193Z,15.04
2023-03-06T07:34:04.790Z,15.01
2023-03-06T07:36:32.136Z,15.02
2023-03-06T07:38:59.232Z,15.05
2023-03-06T07:41:26.335Z,15.05
2023-03-06T07:43:53.431Z,15.05
2023-03-06T07:46:22.826Z,15.13
2023-03-06T07:48:49.934Z,15.19
2023-03-06T07:51:17.021Z,15.17
2023-03-06T07:53:44.098Z,15.23
2023-03-06T07:56:11.895Z,15.24
2023-03-06T07:58:39.053Z,15.25
2023-03-06T08:01:06.122Z,15.27
2023-03-06T08:03:33.335Z,15.29
2023-03-06T08:06:00.436Z,15.29
2023-03-06T08:08:27.522Z,15.29
2023-03-06T08:10:54.633Z,15.29
2023-03-06T08:13:21.723Z,15.25
2023-03-06T08:15:49.323Z,15.27
2023-03-06T08:18:16.393Z,15.30
2023-03-06T08:20:43.464Z,15.32
2023-03-06T08:23:11.937Z,15.35
2023-03-06T08:25:40.408Z,15.32
2023-03-06T08:28:09.928Z,15.36
2023-03-06T08:30:37.090Z,15.36
2023-03-06T08:33:04.181Z,15.29
2023-03-06T08:35:32.760Z,15.33
2023-03-06T08:38:02.123Z,15.42
2023-03-06T08:40:30.508Z,15.46
2023-03-06T08:43:00.140Z,15.46
2023-03-06T08:45:27.234Z,15.46
2023-03-06T08:47:54.387Z,15.44
2023-03-06T08:50:23.738Z,15.47
2023-03-06T08:52:50.867Z,15.47
2023-03-06T08:55:17.977Z,15.44
2023-03-06T08:57:45.102Z,15.46
2023-03-06T09:00:12.807Z,15.50
2023-03-06T09:02:40.000Z,15.57
2023-03-06T09:05:07.514Z,15.58
2023-03-06T09:07:34.631Z,15.61
2023-03-06T09:10:01.717Z,15.65
2023-03-06T09:12:30.758Z,15.67
2023-03-06T09:14:58.051Z,15.67
2023-03-06T09:17:25.236Z,15.63
2023-03-06T09:19:52.476Z,15.65
2023-03-06T09:22:20.776Z,15.71
2023-03-06T09:24:47.893Z,15.71
2023-03-06T09:30:02.057Z,15.74
2023-03-06T09:32:29.192Z,15.75
2023-03-06T09:34:56.278Z,15.79
2023-03-06T09:37:23.459Z,15.75
2023-03-06T09:39:50.525Z,15.69
2023-03-06T09:42:18.314Z,15.69
2023-03-06T09:44:45.444Z,15.68
2023-03-06T09:47:15.544Z,15.76
2023-03-06T09:49:42.680Z,15.76
2023-03-06T09:54:38.299Z,15.75
2023-03-06T09:57:05.378Z,15.82
2023-03-06T09:59:32.477Z,15.80
2023-03-06T10:01:59.611Z,15.75
2023-03-06T10:04:26.732Z,15.81
2023-03-06T10:06:53.868Z,15.80
2023-03-06T10:09:24.133Z,15.85
2023-03-06T10:11:53.771Z,15.89
2023-03-06T10:14:20.868Z,15.89
2023-03-06T10:16:47.994Z,15.81
2023-03-06T10:22:07.338Z,15.80
2023-03-06T10:24:37.530Z,15.83
2023-03-06T10:27:04.777Z,15.89
2023-03-06T10:29:31.908Z,15.91
2023-03-06T10:31:59.061Z,15.90
2023-03-06T10:34:26.185Z,15.88
2023-03-06T10:36:53.304Z,15.92
2023-03-06T10:39:20.418Z,15.96
2023-03-06T10:41:47.552Z,15.90
2023-03-06T10:44:17.424Z,15.89
2023-03-06T10:46:44.649Z,15.90
2023-03-06T10:52:01.434Z,15.97
2023-03-06T10:54:31.204Z,15.91
2023-03-06T10:56:58.291Z,15.90
2023-03-06T10:59:25.572Z,15.92
2023-03-06T11:01:52.945Z,15.91
2023-03-06T11:04:20.086Z,15.85
2023-03-06T11:06:47.253Z,15.88
2023-03-06T11:12:03.635Z,16.00
2023-03-06T11:14:30.727Z,16.03
2023-03-06T11:16:57.781Z,16.03
2023-03-06T11:19:26.534Z,16.05
2023-03-06T11:21:53.721Z,16.08
2023-03-06T11:24:20.857Z,16.02
2023-03-06T11:26:47.997Z,16.08
2023-03-06T11:32:02.300Z,16.02
2023-03-06T11:34:29.454Z,16.10
2023-03-06T11:36:56.580Z,16.06
2023-03-06T11:39:23.770Z,16.03
2023-03-06T11:41:50.876Z,16.07
2023-03-06T11:44:18.061Z,16.12
2023-03-06T11:46:45.768Z,15.96
2023-03-06T11:49:21.891Z,15.98
2023-03-06T11:51:51.361Z,16.09
2023-03-06T11:54:18.465Z,16.10
2023-03-06T11:56:45.632Z,16.14
2023-03-06T12:02:00.695Z,16.16
2023-03-06T12:04:27.894Z,16.16
2023-03-06T12:09:42.068Z,16.18
2023-03-06T12:14:56.338Z,16.19
2023-03-06T12:17:25.327Z,16.15
2023-03-06T12:19:52.446Z,16.17
2023-03-06T12:22:19.569Z,16.20
2023-03-06T12:24:46.715Z,16.19
2023-03-06T12:30:00.830Z,16.18
2023-03-06T12:32:28.176Z,16.21
2023-03-06T12:34:56.859Z,16.24
2023-03-06T12:37:23.997Z,16.23
2023-03-06T12:39:52.480Z,16.23
2023-03-06T12:42:23.427Z,16.26
2023-03-06T12:44:50.937Z,16.30
2023-03-06T12:47:18.343Z,16.30
2023-03-06T12:49:48.569Z,16.24
2023-03-06T12:52:18.565Z,16.17
2023-03-06T12:54:45.866Z,16.19
2023-03-06T12:57:13.121Z,16.17
2023-03-06T12:59:42.370Z,16.21
2023-03-06T13:04:56.635Z,16.23
2023-03-06T13:07:26.297Z,16.21
2023-03-06T13:09:53.385Z,16.25
2023-03-06T13:12:20.550Z,16.20
2023-03-06T13:14:54.038Z,16.26
2023-03-06T13:17:24.853Z,16.21
2023-03-06T13:19:51.972Z,16.26
2023-03-06T13:22:19.065Z,16.28
2023-03-06T13:24:46.197Z,16.30
2023-03-06T13:27:16.301Z,16.32
2023-03-06T13:29:43.400Z,16.32
2023-03-06T13:32:12.523Z,16.31
2023-03-06T13:34:39.673Z,16.33
2023-03-06T13:37:06.753Z,16.32
2023-03-06T13:39:33.842Z,16.32
2023-03-06T13:42:01.115Z,16.32
2023-03-06T13:44:28.425Z,16.34
2023-03-06T13:46:55.609Z,16.34
2023-03-06T13:49:22.782Z,16.35
2023-03-06T13:51:49.876Z,16.35
2023-03-06T13:54:16.982Z,16.33
2023-03-06T13:56:44.358Z,16.37
2023-03-06T13:59:13.851Z,16.33
2023-03-06T14:01:41.390Z,16.30
2023-03-06T14:04:08.587Z,16.29
2023-03-06T14:09:22.721Z,16.33
2023-03-06T14:11:49.812Z,16.31
2023-03-06T14:14:16.916Z,16.26
2023-03-06T14:16:50.211Z,16.33
2023-03-06T14:19:17.764Z,16.33
2023-03-06T14:21:44.874Z,16.25
2023-03-06T14:24:12.004Z,16.31
2023-03-06T14:26:39.092Z,16.31
2023-03-06T14:29:06.150Z,16.26
2023-03-06T14:31:33.272Z,16.27
2023-03-06T14:34:00.425Z,16.32
2023-03-06T14:36:27.518Z,16.31
2023-03-06T14:38:54.623Z,16.29
2023-03-06T14:41:21.715Z,16.32
2023-03-06T14:43:48.860Z,16.35
2023-03-06T14:46:15.988Z,16.29
2023-03-06T14:48:44.388Z,16.31
2023-03-06T14:51:11.463Z,16.33
2023-03-06T14:53:38.693Z,16.39
2023-03-06T14:56:06.391Z,16.28
2023-03-06T14:58:36.443Z,16.29
2023-03-06T15:01:03.666Z,16.33
2023-03-06T15:03:32.809Z,16.39
2023-03-06T15:06:03.762Z,16.40
2023-03-06T15:08:30.931Z,16.39
2023-03-06T15:10:58.060Z,16.36
2023-03-06T15:13:25.231Z,16.36
2023-03-06T15:15:52.484Z,16.42
2023-03-06T15:18:19.743Z,16.42
2023-03-06T15:20:46.864Z,16.40
2023-03-06T15:23:14.021Z,16.43
2023-03-06T15:25:41.199Z,16.37
2023-03-06T15:28:09.495Z,16.39
2023-03-06T15:30:36.588Z,16.38
2023-03-06T15:33:03.740Z,16.39
2023-03-06T15:35:31.953Z,16.42
2023-03-06T15:37:59.327Z,16.44
2023-03-06T15:40:26.469Z,16.41
2023-03-06T15:42:53.585Z,16.40
2023-03-06T15:45:21.011Z,16.40
2023-03-06T15:47:48.201Z,16.39
2023-03-06T15:50:15.565Z,16.42
2023-03-06T15:52:42.702Z,16.45
2023-03-06T15:55:09.782Z,16.41
2023-03-06T15:57:36.858Z,16.43
2023-03-06T16:00:04.240Z,16.41
2023-03-06T16:02:31.566Z,16.42
2023-03-06T16:05:02.423Z,16.39
2023-03-06T16:07:32.540Z,16.41
2023-03-06T16:09:59.763Z,16.41
2023-03-06T16:12:26.839Z,16.38
2023-03-06T16:14:54.066Z,16.30
2023-03-06T16:17:21.146Z,16.30
2023-03-06T16:22:35.249Z,16.36
2023-03-06T16:25:02.961Z,16.33
2023-03-06T16:27:30.067Z,16.37
2023-03-06T16:29:57.166Z,16.35
2023-03-06T16:32:27.097Z,16.35
2023-03-06T16:34:55.700Z,16.33
2023-03-06T16:37:24.292Z,16.32
2023-03-06T16:39:51.485Z,16.35
2023-03-06T16:42:18.560Z,16.34
2023-03-06T16:44:45.731Z,16.35
2023-03-06T16:47:12.889Z,16.33
2023-03-06T16:49:40.023Z,16.33
2023-03-06T16:52:08.518Z,16.34
2023-03-06T16:54:35.632Z,16.33
2023-03-06T16:57:02.766Z,16.34
2023-03-06T16:59:30.137Z,16.36
2023-03-06T17:01:57.327Z,16.35
2023-03-06T17:04:24.398Z,16.34
2023-03-06T17:06:52.857Z,16.34
2023-03-06T17:09:19.968Z,16.34
2023-03-06T17:11:47.078Z,16.32
2023-03-06T17:14:14.232Z,16.31
2023-03-06T17:16:42.519Z,16.34
2023-03-06T17:19:09.601Z,16.35
2023-03-06T17:21:38.452Z,16.35
2023-03-06T17:24:05.747Z,16.35
2023-03-06T17:26:32.824Z,16.31
2023-03-06T17:28:59.887Z,16.34
2023-03-06T17:31:27.104Z,16.34
2023-03-06T17:34:00.436Z,16.36
2023-03-06T17:36:30.097Z,16.34
2023-03-06T17:38:57.304Z,16.32
2023-03-06T17:41:24.698Z,16.36
2023-03-06T17:43:51.923Z,16.49
2023-03-06T17:46:19.041Z,16.58
2023-03-06T17:48:46.114Z,16.62
2023-03-06T17:51:13.264Z,16.64
2023-03-06T17:53:40.430Z,16.67
2023-03-06T17:56:07.576Z,16.65
2023-03-06T17:58:35.116Z,16.66
2023-03-06T18:01:06.669Z,16.71
2023-03-06T18:03:33.775Z,16.74
2023-03-06T18:06:00.943Z,16.77
2023-03-06T18:08:28.099Z,16.81
2023-03-06T18:11:00.618Z,16.82
2023-03-06T18:13:30.029Z,16.85
2023-03-06T18:15:57.248Z,16.78
2023-03-06T18:18:24.431Z,16.70
2023-03-06T18:23:38.277Z,16.55
2023-03-06T18:26:09.848Z,16.58
2023-03-06T18:28:37.154Z,16.58
2023-03-06T18:31:08.432Z,16.58
2023-03-06T18:33:35.863Z,16.55
2023-03-06T18:36:08.040Z,16.56
2023-03-06T18:38:35.214Z,16.54
2023-03-06T18:41:02.376Z,16.56
2023-03-06T18:43:31.749Z,16.54
2023-03-06T18:45:58.975Z,16.54
2023-03-06T18:48:29.178Z,16.53
2023-03-06T18:50:56.319Z,16.52
2023-03-06T18:53:26.021Z,16.49
2023-03-06T18:55:54.206Z,16.50
2023-03-06T18:58:21.841Z,16.49
2023-03-06T19:00:49.066Z,16.48
2023-03-06T19:03:18.719Z,16.50
2023-03-06T19:05:45.829Z,16.50
2023-03-06T19:08:12.913Z,16.50
2023-03-06T19:10:41.862Z,16.46
2023-03-06T19:13:11.651Z,16.48
2023-03-06T19:15:43.672Z,16.46
2023-03-06T19:18:11.006Z,16.46
2023-03-06T19:20:38.091Z,16.46
2023-03-06T19:23:05.198Z,16.50
2023-03-06T19:25:32.821Z,16.47
2023-03-06T19:27:59.950Z,16.46
2023-03-06T19:30:27.065Z,16.43
2023-03-06T19:32:56.783Z,16.43
2023-03-06T19:35:23.944Z,16.41
2023-03-06T19:37:51.006Z,16.41
2023-03-06T19:40:18.070Z,16.43
2023-03-06T19:42:45.203Z,16.41
2023-03-06T19:45:15.102Z,16.40
2023-03-06T19:47:44.284Z,16.41
2023-03-06T19:50:14.532Z,16.41
2023-03-06T19:52:41.750Z,16.39
2023-03-06T19:55:18.503Z,16.38
2023-03-06T19:57:45.570Z,16.40
2023-03-06T20:00:12.678Z,16.36
2023-03-06T20:02:39.747Z,16.39
2023-03-06T20:05:09.188Z,16.37
2023-03-06T20:07:36.369Z,16.36
2023-03-06T20:10:03.648Z,16.40
2023-03-06T20:12:31.988Z,16.41
2023-03-06T20:14:59.052Z,16.38
2023-03-06T20:17:26.131Z,16.33
2023-03-06T20:19:53.457Z,16.34
2023-03-06T20:22:20.509Z,16.34
2023-03-06T20:24:47.568Z,16.34
2023-03-06T20:27:14.638Z,16.29
2023-03-06T20:29:44.693Z,16.29
2023-03-06T20:32:11.820Z,16.33
2023-03-06T20:34:39.049Z,16.40
2023-03-06T20:37:06.107Z,16.37
2023-03-06T20:39:33.172Z,16.37
2023-03-06T20:42:00.314Z,16.33
2023-03-06T20:44:27.396Z,16.33
2023-03-06T20:46:55.253Z,16.35
2023-03-06T20:49:22.350Z,16.34
2023-03-06T20:51:50.115Z,16.36
2023-03-06T20:54:17.412Z,16.30
2023-03-06T20:56:46.668Z,16.26
2023-03-06T20:59:13.734Z,16.25
2023-03-06T21:01:41.554Z,16.27
2023-03-06T21:04:09.825Z,16.30
2023-03-06T21:06:36.898Z,16.32
2023-03-06T21:09:04.006Z,16.31
2023-03-06T21:11:31.094Z,16.25
2023-03-06T21:13:58.150Z,16.26
2023-03-06T21:16:25.354Z,16.21
2023-03-06T21:18:52.484Z,16.21
2023-03-06T21:21:19.598Z,16.25
2023-03-06T21:23:46.705Z,16.23
2023-03-06T21:26:13.794Z,16.23
2023-03-06T21:28:40.849Z,16.20
2023-03-06T21:31:08.012Z,16.19
2023-03-06T21:33:35.102Z,16.16
2023-03-06T21:36:02.188Z,16.17
2023-03-06T21:38:29.291Z,16.20
2023-03-06T21:40:56.372Z,16.22
2023-03-06T21:43:23.466Z,16.18
2023-03-06T21:45:52.722Z,16.15
2023-03-06T21:48:19.825Z,16.13
2023-03-06T21:50:46.889Z,16.14
2023-03-06T21:53:14.000Z,16.12
2023-03-06T21:55:41.083Z,16.16
2023-03-06T21:58:08.149Z,16.14
2023-03-06T22:00:36.513Z,16.13
2023-03-06T22:03:04.681Z,16.11
2023-03-06T22:05:34.624Z,16.00
2023-03-06T22:08:01.697Z,15.96
2023-03-06T22:10:28.771Z,15.96
2023-03-06T22:12:55.842Z,15.99
2023-03-06T22:15:22.904Z,15.99
2023-03-06T22:17:50.004Z,15.99
2023-03-06T22:20:17.099Z,15.98
2023-03-06T22:22:44.183Z,15.95
2023-03-06T22:25:11.966Z,15.94
2023-03-06T22:27:39.057Z,15.92
2023-03-06T22:30:06.126Z,15.91
2023-03-06T22:32:33.364Z,15.91
2023-03-06T22:35:00.492Z,15.89
2023-03-06T22:37:27.574Z,15.89
2023-03-06T22:39:54.643Z,15.88
2023-03-06T22:42:21.752Z,15.85
2023-03-06T22:44:48.830Z,15.86
2023-03-06T22:47:15.886Z,15.84
2023-03-06T22:49:42.961Z,15.85
2023-03-06T22:52:10.018Z,15.83
2023-03-06T22:54:37.073Z,15.79
2023-03-06T22:57:04.373Z,15.79
2023-03-06T22:59:31.435Z,15.79
2023-03-06T23:01:58.488Z,15.78
2023-03-06T23:04:25.569Z,15.77
2023-03-06T23:06:52.750Z,15.75
2023-03-06T23:09:21.349Z,15.74
2023-03-06T23:11:48.444Z,15.74
2023-03-06T23:14:15.553Z,15.74
2023-03-06T23:16:42.615Z,15.71
2023-03-06T23:19:09.678Z,15.71
2023-03-06T23:21:36.751Z,15.70
2023-03-06T23:24:04.375Z,15.70
2023-03-06T23:26:31.484Z,15.69
2023-03-06T23:28:58.596Z,15.68
2023-03-06T23:31:28.560Z,15.67
2023-03-06T23:33:55.676Z,15.65
2023-03-06T23:36:22.848Z,15.64
2023-03-06T23:38:49.987Z,15.65
2023-03-06T23:41:17.052Z,15.64
2023-03-06T23:43:44.134Z,15.63
2023-03-06T23:46:11.305Z,15.62
2023-03-06T23:51:25.425Z,15.62
2023-03-06T23:53:52.511Z,15.63
2023-03-06T23:56:19.587Z,15.58
2023-03-06T23:58:47.134Z,15.62
